createdAt,value
2022-08-21T00:03:21.998Z,4.95
2022-08-21T00:08:32.059Z,5.57
2022-08-21T00:13:38.183Z,5.05
2022-08-21T00:18:45.066Z,6.05
2022-08-21T00:23:53.694Z,5.80
2022-08-21T00:28:57.075Z,5.55
2022-08-21T00:34:00.780Z,6.28
2022-08-21T00:39:03.529Z,6.97
2022-08-21T00:44:07.731Z,6.10
2022-08-21T00:49:09.333Z,6.30
2022-08-21T00:54:19.070Z,6.97
2022-08-21T00:59:22.320Z,6.78
2022-08-21T01:04:26.094Z,7.43
2022-08-21T01:09:33.049Z,6.55
2022-08-21T01:14:43.374Z,7.07
2022-08-21T01:19:45.005Z,6.57
2022-08-21T01:24:54.802Z,7.57
2022-08-21T01:29:59.863Z,7.68
2022-08-21T01:35:04.042Z,8.57
2022-08-21T01:40:08.586Z,7.72
2022-08-21T01:45:16.210Z,7.38
2022-08-21T01:50:18.022Z,7.60
2022-08-21T01:55:19.765Z,7.18
2022-08-21T02:00:28.382Z,7.95
2022-08-21T02:05:30.448Z,8.50
2022-08-21T02:10:39.316Z,7.55
2022-08-21T02:15:44.646Z,8.05
2022-08-21T02:20:54.131Z,7.75
2022-08-21T02:25:58.184Z,7.53
2022-08-21T02:31:02.594Z,7.47
2022-08-21T02:36:05.000Z,7.80
2022-08-21T02:41:04.944Z,7.53
2022-08-21T02:46:07.784Z,7.57
2022-08-21T02:51:21.540Z,6.88
2022-08-21T02:56:25.160Z,7.93
2022-08-21T03:01:31.103Z,7.53
2022-08-21T03:06:32.124Z,7.47
2022-08-21T03:11:33.230Z,7.97
2022-08-21T03:16:35.281Z,8.25
2022-08-21T03:21:34.987Z,7.57
2022-08-21T03:26:40.137Z,7.30
2022-08-21T03:31:41.286Z,8.32
2022-08-21T03:36:42.842Z,7.30
2022-08-21T03:41:48.403Z,7.45
2022-08-21T03:46:50.177Z,7.60
2022-08-21T03:51:59.145Z,7.80
2022-08-21T03:56:58.463Z,7.15
2022-08-21T04:02:04.241Z,7.97
2022-08-21T04:07:03.182Z,8.18
2022-08-21T04:12:01.882Z,8.05
2022-08-21T04:17:02.444Z,7.03
2022-08-21T04:22:00.998Z,9.07
2022-08-21T04:27:01.109Z,7.75
2022-08-21T04:31:59.777Z,8.68
2022-08-21T04:36:57.328Z,7.90
2022-08-21T04:41:57.889Z,7.15
2022-08-21T04:46:58.105Z,7.82
2022-08-21T04:52:01.565Z,7.75
2022-08-21T05:02:10.232Z,7.38
2022-08-21T05:07:14.301Z,8.00
2022-08-21T05:12:13.143Z,7.90
2022-08-21T05:17:13.338Z,7.88
2022-08-21T05:22:25.521Z,7.82
2022-08-21T05:27:27.863Z,7.75
2022-08-21T05:32:32.761Z,7.85
2022-08-21T05:37:30.964Z,7.75
2022-08-21T05:42:29.357Z,7.15
2022-08-21T05:47:30.254Z,7.60
2022-08-21T05:52:30.565Z,7.22
2022-08-21T05:57:31.211Z,6.63
2022-08-21T06:02:32.686Z,7.10
2022-08-21T06:07:34.896Z,7.07
2022-08-21T06:12:33.485Z,7.53
2022-08-21T06:17:31.925Z,7.20
2022-08-21T06:22:33.079Z,6.80
2022-08-21T06:27:31.473Z,6.47
2022-08-21T06:32:31.175Z,6.75
2022-08-21T06:37:44.897Z,6.80
2022-08-21T06:42:49.953Z,6.78
2022-08-21T06:47:51.282Z,7.13
2022-08-21T06:53:09.697Z,6.28
2022-08-21T06:58:12.188Z,6.22
2022-08-21T07:03:48.826Z,5.73
2022-08-21T07:08:47.132Z,6.53
2022-08-21T07:13:46.249Z,6.13
2022-08-21T07:18:49.961Z,6.60
2022-08-21T07:23:53.374Z,6.45
2022-08-21T07:28:54.490Z,5.95
2022-08-21T07:33:56.216Z,5.43
2022-08-21T07:39:03.215Z,6.13
2022-08-21T07:44:04.381Z,5.88
2022-08-21T07:54:17.329Z,5.75
2022-08-21T07:59:18.605Z,5.07
2022-08-21T08:04:17.089Z,5.50
2022-08-21T08:09:18.997Z,4.93
2022-08-21T08:14:46.567Z,6.07
2022-08-21T08:19:47.163Z,6.00
2022-08-21T08:24:50.909Z,5.97
2022-08-21T08:29:49.515Z,5.35
2022-08-21T08:34:52.830Z,5.45
2022-08-21T08:39:53.985Z,5.78
2022-08-21T08:45:02.343Z,6.15
2022-08-21T08:50:27.235Z,5.55
2022-08-21T08:55:39.633Z,5.55
2022-08-21T09:00:41.982Z,5.68
2022-08-21T09:06:07.916Z,5.82
2022-08-21T09:11:21.011Z,5.70
2022-08-21T09:16:50.578Z,5.47
2022-08-21T09:22:05.971Z,6.38
2022-08-21T09:27:15.951Z,5.75
2022-08-21T09:32:40.659Z,5.18
2022-08-21T09:38:08.470Z,5.40
2022-08-21T09:43:25.209Z,5.50
2022-08-21T09:48:35.429Z,6.68
2022-08-21T09:53:44.123Z,5.30
2022-08-21T09:58:48.016Z,5.88
2022-08-21T10:03:52.457Z,5.85
2022-08-21T10:08:52.086Z,6.38
2022-08-21T10:14:13.915Z,5.82
2022-08-21T10:19:21.174Z,6.35
2022-08-21T10:24:30.947Z,5.65
2022-08-21T10:29:53.404Z,5.65
2022-08-21T10:35:17.970Z,5.45
2022-08-21T10:40:29.621Z,5.88
2022-08-21T10:46:05.273Z,5.75
2022-08-21T10:51:41.672Z,5.95
2022-08-21T10:56:44.176Z,5.35
2022-08-21T11:01:57.080Z,5.43
2022-08-21T11:07:03.900Z,6.10
2022-08-21T11:12:30.970Z,5.78
2022-08-21T11:17:49.392Z,5.88
2022-08-21T11:23:13.583Z,5.65
2022-08-21T11:28:19.733Z,4.85
2022-08-21T11:33:36.973Z,5.35
2022-08-21T11:38:42.175Z,4.72
2022-08-21T11:43:55.919Z,5.70
2022-08-21T11:49:38.005Z,6.13
2022-08-21T11:54:49.876Z,6.22
2022-08-21T12:01:02.497Z,6.07
2022-08-21T12:06:24.374Z,5.28
2022-08-21T12:16:52.275Z,5.63
2022-08-21T12:22:23.102Z,5.35
2022-08-21T12:27:31.372Z,3.95
2022-08-21T12:32:51.039Z,4.18
2022-08-21T12:38:31.328Z,4.57
2022-08-21T12:43:40.036Z,4.35
2022-08-21T12:49:19.784Z,4.57
2022-08-21T12:54:32.877Z,3.90
2022-08-21T12:59:36.088Z,3.97
2022-08-21T13:04:43.291Z,4.60
2022-08-21T13:09:50.886Z,4.78
2022-08-21T13:15:00.323Z,5.28
2022-08-21T13:20:32.126Z,5.28
2022-08-21T13:25:48.547Z,4.43
2022-08-21T13:30:59.883Z,4.88
2022-08-21T13:36:45.404Z,5.07
2022-08-21T13:42:13.703Z,4.40
2022-08-21T13:47:20.514Z,4.70
2022-08-21T13:52:29.682Z,4.55
2022-08-21T13:57:43.908Z,4.93
2022-08-21T14:02:56.660Z,5.35
2022-08-21T14:08:14.588Z,4.90
2022-08-21T14:13:39.067Z,4.93
2022-08-21T14:18:46.513Z,5.60
2022-08-21T14:23:46.253Z,6.18
2022-08-21T14:28:48.472Z,5.97
2022-08-21T14:33:50.562Z,6.30
2022-08-21T14:38:53.390Z,5.85
2022-08-21T14:44:09.183Z,5.50
2022-08-21T14:49:18.662Z,4.45
2022-08-21T14:54:18.895Z,4.85
2022-08-21T14:59:57.002Z,3.70
2022-08-21T15:05:14.327Z,3.88
2022-08-21T15:10:52.461Z,4.25
2022-08-21T15:15:57.315Z,7.07
2022-08-21T15:20:55.926Z,4.38
2022-08-21T15:31:33.220Z,3.03
2022-08-21T15:36:50.320Z,3.30
2022-08-21T15:41:58.770Z,3.45
2022-08-21T15:47:02.168Z,3.50
2022-08-21T15:52:05.510Z,3.75
2022-08-21T15:57:03.800Z,4.35
2022-08-21T16:02:02.622Z,4.45
2022-08-21T16:07:06.425Z,4.63
2022-08-21T16:12:12.907Z,4.43
2022-08-21T16:17:39.085Z,4.45
2022-08-21T16:22:56.685Z,6.25
2022-08-21T16:28:13.703Z,5.93
2022-08-21T16:33:28.477Z,5.13
2022-08-21T16:38:30.727Z,5.88
2022-08-21T16:43:38.440Z,5.35
2022-08-21T16:54:15.025Z,8.13
2022-08-21T16:59:13.831Z,6.53
2022-08-21T17:04:12.563Z,6.78
2022-08-21T17:09:14.015Z,5.97
2022-08-21T17:14:49.712Z,6.55
2022-08-21T17:19:57.745Z,8.82
2022-08-21T17:25:10.548Z,8.32
2022-08-21T17:30:15.788Z,7.93
2022-08-21T17:35:38.070Z,6.78
2022-08-21T17:41:12.686Z,6.43
2022-08-21T17:46:33.494Z,9.40
2022-08-21T17:52:00.987Z,8.80
2022-08-21T17:57:19.701Z,9.25
2022-08-21T18:02:25.327Z,10.05
2022-08-21T18:07:32.682Z,10.18
2022-08-21T18:12:40.410Z,9.05
2022-08-21T18:17:41.614Z,10.60
2022-08-21T18:22:44.505Z,9.80
2022-08-21T18:28:14.661Z,10.15
2022-08-21T18:33:16.705Z,7.75
2022-08-21T18:38:35.135Z,9.52
2022-08-21T18:43:34.075Z,8.77
2022-08-21T18:48:36.681Z,9.50
2022-08-21T18:53:43.711Z,10.68
2022-08-21T18:59:02.280Z,10.43
2022-08-21T19:04:08.950Z,9.93
2022-08-21T19:09:23.456Z,10.27
2022-08-21T19:14:29.210Z,11.02
2022-08-21T19:19:32.417Z,11.18
2022-08-21T19:24:49.967Z,9.65
2022-08-21T19:30:14.393Z,10.93
2022-08-21T19:35:22.267Z,10.30
2022-08-21T19:40:25.299Z,10.88
2022-08-21T19:45:26.526Z,9.80
2022-08-21T19:50:32.383Z,9.57
2022-08-21T19:55:30.521Z,12.02
2022-08-21T20:00:33.713Z,11.80
2022-08-21T20:10:54.524Z,10.82
2022-08-21T20:15:53.934Z,10.95
2022-08-21T20:20:53.336Z,11.52
2022-08-21T20:25:54.126Z,11.43
2022-08-21T20:30:53.195Z,12.20
2022-08-21T20:35:52.418Z,11.20
2022-08-21T20:40:52.974Z,10.32
2022-08-21T20:45:51.885Z,10.25
2022-08-21T20:50:52.678Z,11.52
2022-08-21T20:55:54.128Z,12.45
2022-08-21T21:00:54.220Z,10.68
2022-08-21T21:05:59.185Z,11.48
2022-08-21T21:11:14.861Z,10.30
2022-08-21T21:16:18.426Z,11.23
2022-08-21T21:21:36.248Z,10.32
2022-08-21T21:26:57.818Z,10.23
2022-08-21T21:31:57.543Z,11.43
2022-08-21T21:37:05.965Z,10.95
2022-08-21T21:42:32.808Z,11.05
2022-08-21T21:47:48.448Z,9.38
2022-08-21T21:53:12.458Z,9.02
2022-08-21T21:58:43.633Z,9.00
2022-08-21T22:04:28.379Z,8.77
2022-08-21T22:09:32.588Z,8.60
2022-08-21T22:14:38.688Z,9.30
2022-08-21T22:19:40.960Z,8.73
2022-08-21T22:24:44.718Z,8.05
2022-08-21T22:29:52.395Z,8.10
2022-08-21T22:35:09.610Z,8.32
2022-08-21T22:40:12.953Z,9.20
2022-08-21T22:45:23.957Z,9.10
2022-08-21T22:50:33.468Z,8.15
2022-08-21T22:55:46.655Z,8.88
2022-08-21T23:01:26.202Z,7.65
2022-08-21T23:06:52.731Z,8.30
2022-08-21T23:11:53.209Z,9.50
2022-08-21T23:17:17.725Z,9.27
2022-08-21T23:22:28.793Z,9.30
2022-08-21T23:27:54.123Z,9.55
2022-08-21T23:33:22.851Z,10.00
2022-08-21T23:38:53.234Z,9.88
2022-08-21T23:44:06.976Z,9.60
2022-08-21T23:49:17.690Z,9.88
2022-08-21T23:54:42.751Z,9.70
